sensor_id;sensor_type;location;lat;lon;timestamp;P1;durP1;ratioP1;P2;durP2;ratioP2
39256;SDS011;24958;48.066;11.038;2022-08-20T00:01:51;17.73;;;16.02;;
39256;SDS011;24958;48.066;11.038;2022-08-20T00:04:17;18.50;;;16.80;;
39256;SDS011;24958;48.066;11.038;2022-08-20T00:06:43;19.20;;;17.40;;
39256;SDS011;24958;48.066;11.038;2022-08-20T00:09:09;20.85;;;18.65;;
39256;SDS011;24958;48.066;11.038;2022-08-20T00:11:35;19.65;;;17.73;;
39256;SDS011;24958;48.066;11.038;2022-08-20T00:14:02;19.58;;;17.77;;
39256;SDS011;24958;48.066;11.038;2022-08-20T00:16:30;19.48;;;17.58;;
39256;SDS011;24958;48.066;11.038;2022-08-20T00:18:57;19.73;;;17.75;;
39256;SDS011;24958;48.066;11.038;2022-08-20T00:21:23;24.30;;;19.40;;
39256;SDS011;24958;48.066;11.038;2022-08-20T00:23:49;20.13;;;18.02;;
39256;SDS011;24958;48.066;11.038;2022-08-20T00:26:16;23.15;;;19.98;;
39256;SDS011;24958;48.066;11.038;2022-08-20T00:28:42;19.67;;;17.70;;
39256;SDS011;24958;48.066;11.038;2022-08-20T00:31:09;21.98;;;19.65;;
39256;SDS011;24958;48.066;11.038;2022-08-20T00:33:36;20.90;;;18.75;;
39256;SDS011;24958;48.066;11.038;2022-08-20T00:36:03;21.05;;;18.95;;
39256;SDS011;24958;48.066;11.038;2022-08-20T00:38:35;21.75;;;19.48;;
39256;SDS011;24958;48.066;11.038;2022-08-20T00:41:01;21.98;;;19.67;;
39256;SDS011;24958;48.066;11.038;2022-08-20T00:43:30;22.13;;;19.88;;
39256;SDS011;24958;48.066;11.038;2022-08-20T00:45:57;22.90;;;20.50;;
39256;SDS011;24958;48.066;11.038;2022-08-20T00:48:24;23.00;;;20.60;;
39256;SDS011;24958;48.066;11.038;2022-08-20T00:51:00;21.88;;;19.67;;
39256;SDS011;24958;48.066;11.038;2022-08-20T00:53:26;23.48;;;20.90;;
39256;SDS011;24958;48.066;11.038;2022-08-20T00:55:53;22.73;;;20.33;;
39256;SDS011;24958;48.066;11.038;2022-08-20T00:58:19;23.65;;;21.33;;
39256;SDS011;24958;48.066;11.038;2022-08-20T01:00:45;25.50;;;22.67;;
39256;SDS011;24958;48.066;11.038;2022-08-20T01:03:13;23.45;;;21.00;;
39256;SDS011;24958;48.066;11.038;2022-08-20T01:05:42;23.67;;;21.15;;
39256;SDS011;24958;48.066;11.038;2022-08-20T01:08:09;24.05;;;21.48;;
39256;SDS011;24958;48.066;11.038;2022-08-20T01:10:37;24.65;;;21.05;;
39256;SDS011;24958;48.066;11.038;2022-08-20T01:13:06;24.10;;;21.65;;
39256;SDS011;24958;48.066;11.038;2022-08-20T01:15:35;24.58;;;21.98;;
39256;SDS011;24958;48.066;11.038;2022-08-20T01:18:04;25.17;;;22.48;;
39256;SDS011;24958;48.066;11.038;2022-08-20T01:20:31;23.63;;;21.33;;
39256;SDS011;24958;48.066;11.038;2022-08-20T01:28:12;25.67;;;23.08;;
39256;SDS011;24958;48.066;11.038;2022-08-20T01:30:39;25.27;;;22.67;;
39256;SDS011;24958;48.066;11.038;2022-08-20T01:33:05;26.02;;;22.25;;
39256;SDS011;24958;48.066;11.038;2022-08-20T01:35:34;25.08;;;22.58;;
39256;SDS011;24958;48.066;11.038;2022-08-20T01:38:00;25.83;;;23.23;;
39256;SDS011;24958;48.066;11.038;2022-08-20T01:40:30;25.55;;;22.85;;
39256;SDS011;24958;48.066;11.038;2022-08-20T01:43:00;26.48;;;23.67;;
39256;SDS011;24958;48.066;11.038;2022-08-20T01:45:30;25.52;;;22.77;;
39256;SDS011;24958;48.066;11.038;2022-08-20T01:47:57;25.85;;;23.10;;
39256;SDS011;24958;48.066;11.038;2022-08-20T01:50:25;25.40;;;22.85;;
39256;SDS011;24958;48.066;11.038;2022-08-20T01:55:24;24.67;;;22.25;;
39256;SDS011;24958;48.066;11.038;2022-08-20T01:57:53;25.65;;;22.95;;
39256;SDS011;24958;48.066;11.038;2022-08-20T02:00:19;25.80;;;23.10;;
39256;SDS011;24958;48.066;11.038;2022-08-20T02:02:46;24.30;;;21.80;;
39256;SDS011;24958;48.066;11.038;2022-08-20T02:05:12;24.35;;;21.95;;
39256;SDS011;24958;48.066;11.038;2022-08-20T02:07:38;24.10;;;21.58;;
39256;SDS011;24958;48.066;11.038;2022-08-20T02:10:05;26.02;;;23.23;;
39256;SDS011;24958;48.066;11.038;2022-08-20T02:12:32;24.67;;;22.27;;
39256;SDS011;24958;48.066;11.038;2022-08-20T02:14:59;23.92;;;21.55;;
39256;SDS011;24958;48.066;11.038;2022-08-20T02:17:25;25.25;;;22.75;;
39256;SDS011;24958;48.066;11.038;2022-08-20T02:24:44;25.20;;;22.50;;
39256;SDS011;24958;48.066;11.038;2022-08-20T02:27:10;24.48;;;21.98;;
39256;SDS011;24958;48.066;11.038;2022-08-20T02:29:36;23.70;;;21.27;;
39256;SDS011;24958;48.066;11.038;2022-08-20T02:32:03;23.08;;;20.52;;
39256;SDS011;24958;48.066;11.038;2022-08-20T02:34:30;24.35;;;21.85;;
39256;SDS011;24958;48.066;11.038;2022-08-20T02:36:58;23.35;;;21.00;;
39256;SDS011;24958;48.066;11.038;2022-08-20T02:39:24;22.70;;;20.48;;
39256;SDS011;24958;48.066;11.038;2022-08-20T02:41:51;21.88;;;19.67;;
39256;SDS011;24958;48.066;11.038;2022-08-20T02:44:16;21.70;;;19.42;;
39256;SDS011;24958;48.066;11.038;2022-08-20T02:46:45;23.65;;;21.15;;
39256;SDS011;24958;48.066;11.038;2022-08-20T02:49:13;22.17;;;19.98;;
39256;SDS011;24958;48.066;11.038;2022-08-20T02:51:39;21.42;;;19.23;;
39256;SDS011;24958;48.066;11.038;2022-08-20T02:54:05;23.20;;;20.70;;
39256;SDS011;24958;48.066;11.038;2022-08-20T02:56:30;21.95;;;19.75;;
39256;SDS011;24958;48.066;11.038;2022-08-20T02:58:56;22.95;;;20.48;;
39256;SDS011;24958;48.066;11.038;2022-08-20T03:01:22;22.13;;;19.90;;
39256;SDS011;24958;48.066;11.038;2022-08-20T03:03:48;22.23;;;20.02;;
39256;SDS011;24958;48.066;11.038;2022-08-20T03:06:14;21.33;;;19.25;;
39256;SDS011;24958;48.066;11.038;2022-08-20T03:08:41;20.83;;;18.90;;
39256;SDS011;24958;48.066;11.038;2022-08-20T03:11:07;22.23;;;19.83;;
39256;SDS011;24958;48.066;11.038;2022-08-20T03:13:34;21.42;;;19.23;;
39256;SDS011;24958;48.066;11.038;2022-08-20T03:16:01;22.20;;;20.02;;
39256;SDS011;24958;48.066;11.038;2022-08-20T03:18:31;20.50;;;18.33;;
39256;SDS011;24958;48.066;11.038;2022-08-20T03:20:58;24.88;;;20.42;;
39256;SDS011;24958;48.066;11.038;2022-08-20T03:23:24;20.85;;;18.67;;
39256;SDS011;24958;48.066;11.038;2022-08-20T03:25:50;20.35;;;18.35;;
39256;SDS011;24958;48.066;11.038;2022-08-20T03:28:16;21.42;;;19.30;;
39256;SDS011;24958;48.066;11.038;2022-08-20T03:30:43;20.67;;;18.67;;
39256;SDS011;24958;48.066;11.038;2022-08-20T03:33:10;19.98;;;17.98;;
39256;SDS011;24958;48.066;11.038;2022-08-20T03:35:36;20.90;;;18.85;;
39256;SDS011;24958;48.066;11.038;2022-08-20T03:38:07;21.23;;;19.13;;
39256;SDS011;24958;48.066;11.038;2022-08-20T03:40:33;21.77;;;19.48;;
39256;SDS011;24958;48.066;11.038;2022-08-20T03:42:59;20.58;;;18.48;;
39256;SDS011;24958;48.066;11.038;2022-08-20T03:45:25;21.45;;;19.35;;
39256;SDS011;24958;48.066;11.038;2022-08-20T03:47:52;20.65;;;18.55;;
39256;SDS011;24958;48.066;11.038;2022-08-20T03:50:20;20.13;;;18.02;;
39256;SDS011;24958;48.066;11.038;2022-08-20T03:52:47;21.10;;;18.95;;
39256;SDS011;24958;48.066;11.038;2022-08-20T03:55:13;19.85;;;17.95;;
39256;SDS011;24958;48.066;11.038;2022-08-20T03:57:43;20.95;;;18.77;;
39256;SDS011;24958;48.066;11.038;2022-08-20T04:00:09;20.92;;;18.75;;
39256;SDS011;24958;48.066;11.038;2022-08-20T04:02:37;20.38;;;18.30;;
39256;SDS011;24958;48.066;11.038;2022-08-20T04:05:04;20.00;;;18.00;;
39256;SDS011;24958;48.066;11.038;2022-08-20T04:07:30;20.13;;;18.10;;
39256;SDS011;24958;48.066;11.038;2022-08-20T04:09:56;19.90;;;17.90;;
39256;SDS011;24958;48.066;11.038;2022-08-20T04:12:22;19.90;;;17.90;;
39256;SDS011;24958;48.066;11.038;2022-08-20T04:14:49;18.85;;;17.02;;
39256;SDS011;24958;48.066;11.038;2022-08-20T04:17:16;19.35;;;17.45;;
39256;SDS011;24958;48.066;11.038;2022-08-20T04:19:42;20.05;;;18.10;;
39256;SDS011;24958;48.066;11.038;2022-08-20T04:22:08;21.55;;;19.25;;
39256;SDS011;24958;48.066;11.038;2022-08-20T04:24:37;19.92;;;18.02;;
39256;SDS011;24958;48.066;11.038;2022-08-20T04:27:04;21.10;;;18.80;;
39256;SDS011;24958;48.066;11.038;2022-08-20T04:29:32;20.38;;;18.38;;
39256;SDS011;24958;48.066;11.038;2022-08-20T04:31:58;22.70;;;19.33;;
39256;SDS011;24958;48.066;11.038;2022-08-20T04:34:24;20.15;;;18.17;;
39256;SDS011;24958;48.066;11.038;2022-08-20T04:36:50;21.83;;;19.27;;
39256;SDS011;24958;48.066;11.038;2022-08-20T04:39:17;20.70;;;18.60;;
39256;SDS011;24958;48.066;11.038;2022-08-20T04:41:43;24.33;;;19.67;;
39256;SDS011;24958;48.066;11.038;2022-08-20T04:44:09;20.75;;;18.75;;
39256;SDS011;24958;48.066;11.038;2022-08-20T04:46:36;20.15;;;18.25;;
39256;SDS011;24958;48.066;11.038;2022-08-20T04:49:02;20.67;;;18.67;;
39256;SDS011;24958;48.066;11.038;2022-08-20T04:51:29;19.75;;;17.75;;
39256;SDS011;24958;48.066;11.038;2022-08-20T04:53:55;20.20;;;18.23;;
39256;SDS011;24958;48.066;11.038;2022-08-20T04:56:22;21.30;;;19.20;;
39256;SDS011;24958;48.066;11.038;2022-08-20T04:58:48;21.75;;;19.55;;
39256;SDS011;24958;48.066;11.038;2022-08-20T05:01:15;19.35;;;17.45;;
39256;SDS011;24958;48.066;11.038;2022-08-20T05:03:41;20.40;;;18.42;;
39256;SDS011;24958;48.066;11.038;2022-08-20T05:06:08;20.10;;;18.20;;
39256;SDS011;24958;48.066;11.038;2022-08-20T05:08:35;17.80;;;15.95;;
39256;SDS011;24958;48.066;11.038;2022-08-20T05:11:02;20.58;;;18.55;;
39256;SDS011;24958;48.066;11.038;2022-08-20T05:13:29;20.52;;;18.50;;
39256;SDS011;24958;48.066;11.038;2022-08-20T05:15:55;19.33;;;17.52;;
39256;SDS011;24958;48.066;11.038;2022-08-20T05:18:25;19.85;;;17.85;;
39256;SDS011;24958;48.066;11.038;2022-08-20T05:20:51;19.83;;;17.83;;
39256;SDS011;24958;48.066;11.038;2022-08-20T05:23:18;22.27;;;19.98;;
39256;SDS011;24958;48.066;11.038;2022-08-20T05:25:45;19.33;;;17.42;;
39256;SDS011;24958;48.066;11.038;2022-08-20T05:28:20;21.77;;;19.48;;
39256;SDS011;24958;48.066;11.038;2022-08-20T05:30:47;19.67;;;17.77;;
39256;SDS011;24958;48.066;11.038;2022-08-20T05:33:13;18.70;;;16.95;;
39256;SDS011;24958;48.066;11.038;2022-08-20T05:35:42;21.48;;;19.17;;
39256;SDS011;24958;48.066;11.038;2022-08-20T05:38:09;18.65;;;16.95;;
39256;SDS011;24958;48.066;11.038;2022-08-20T05:40:36;19.27;;;17.48;;
39256;SDS011;24958;48.066;11.038;2022-08-20T05:43:04;19.52;;;17.65;;
39256;SDS011;24958;48.066;11.038;2022-08-20T05:45:30;19.67;;;17.63;;
39256;SDS011;24958;48.066;11.038;2022-08-20T05:47:57;19.52;;;17.63;;
39256;SDS011;24958;48.066;11.038;2022-08-20T05:50:23;20.50;;;18.42;;
39256;SDS011;24958;48.066;11.038;2022-08-20T05:52:49;18.98;;;17.05;;
39256;SDS011;24958;48.066;11.038;2022-08-20T05:55:16;20.15;;;18.05;;
39256;SDS011;24958;48.066;11.038;2022-08-20T05:57:42;18.52;;;16.70;;
39256;SDS011;24958;48.066;11.038;2022-08-20T06:00:10;20.25;;;18.25;;
39256;SDS011;24958;48.066;11.038;2022-08-20T06:02:37;18.10;;;16.40;;
39256;SDS011;24958;48.066;11.038;2022-08-20T06:05:22;20.27;;;18.08;;
39256;SDS011;24958;48.066;11.038;2022-08-20T06:07:48;17.63;;;15.98;;
39256;SDS011;24958;48.066;11.038;2022-08-20T06:10:17;19.92;;;17.70;;
39256;SDS011;24958;48.066;11.038;2022-08-20T06:12:43;17.33;;;15.63;;
39256;SDS011;24958;48.066;11.038;2022-08-20T06:15:09;20.10;;;18.02;;
39256;SDS011;24958;48.066;11.038;2022-08-20T06:17:36;17.08;;;15.57;;
39256;SDS011;24958;48.066;11.038;2022-08-20T06:20:03;18.63;;;16.75;;
39256;SDS011;24958;48.066;11.038;2022-08-20T06:22:33;17.75;;;16.05;;
39256;SDS011;24958;48.066;11.038;2022-08-20T06:24:59;17.63;;;16.00;;
39256;SDS011;24958;48.066;11.038;2022-08-20T06:27:26;18.30;;;16.40;;
39256;SDS011;24958;48.066;11.038;2022-08-20T06:29:52;16.48;;;14.88;;
39256;SDS011;24958;48.066;11.038;2022-08-20T06:32:18;19.08;;;17.08;;
39256;SDS011;24958;48.066;11.038;2022-08-20T06:34:45;16.50;;;15.00;;
39256;SDS011;24958;48.066;11.038;2022-08-20T06:37:15;17.67;;;15.88;;
39256;SDS011;24958;48.066;11.038;2022-08-20T06:39:42;15.88;;;14.48;;
39256;SDS011;24958;48.066;11.038;2022-08-20T06:42:08;17.23;;;15.45;;
39256;SDS011;24958;48.066;11.038;2022-08-20T06:44:34;16.23;;;14.63;;
39256;SDS011;24958;48.066;11.038;2022-08-20T06:47:01;17.65;;;15.95;;
39256;SDS011;24958;48.066;11.038;2022-08-20T06:49:28;16.90;;;15.30;;
39256;SDS011;24958;48.066;11.038;2022-08-20T06:51:54;16.98;;;15.15;;
39256;SDS011;24958;48.066;11.038;2022-08-20T06:54:20;15.50;;;14.10;;
39256;SDS011;24958;48.066;11.038;2022-08-20T06:56:46;17.60;;;15.80;;
39256;SDS011;24958;48.066;11.038;2022-08-20T06:59:12;14.45;;;13.15;;
39256;SDS011;24958;48.066;11.038;2022-08-20T07:01:39;15.45;;;13.95;;
39256;SDS011;24958;48.066;11.038;2022-08-20T07:04:04;15.82;;;14.30;;
39256;SDS011;24958;48.066;11.038;2022-08-20T07:06:32;14.20;;;12.90;;
39256;SDS011;24958;48.066;11.038;2022-08-20T07:08:58;16.50;;;14.73;;
39256;SDS011;24958;48.066;11.038;2022-08-20T07:11:24;13.43;;;12.23;;
39256;SDS011;24958;48.066;11.038;2022-08-20T07:13:51;15.50;;;13.90;;
39256;SDS011;24958;48.066;11.038;2022-08-20T07:16:17;14.05;;;12.85;;
39256;SDS011;24958;48.066;11.038;2022-08-20T07:18:43;14.38;;;12.88;;
39256;SDS011;24958;48.066;11.038;2022-08-20T07:21:09;13.25;;;12.15;;
39256;SDS011;24958;48.066;11.038;2022-08-20T07:23:36;15.13;;;13.50;;
39256;SDS011;24958;48.066;11.038;2022-08-20T07:26:02;13.48;;;12.18;;
39256;SDS011;24958;48.066;11.038;2022-08-20T07:28:28;14.55;;;13.15;;
39256;SDS011;24958;48.066;11.038;2022-08-20T07:30:56;13.00;;;11.80;;
39256;SDS011;24958;48.066;11.038;2022-08-20T07:33:41;14.00;;;12.60;;
39256;SDS011;24958;48.066;11.038;2022-08-20T07:36:08;14.00;;;12.75;;
39256;SDS011;24958;48.066;11.038;2022-08-20T07:38:35;14.07;;;12.77;;
39256;SDS011;24958;48.066;11.038;2022-08-20T07:43:27;14.25;;;12.85;;
39256;SDS011;24958;48.066;11.038;2022-08-20T07:45:54;13.70;;;12.38;;
39256;SDS011;24958;48.066;11.038;2022-08-20T07:48:21;12.43;;;11.25;;
39256;SDS011;24958;48.066;11.038;2022-08-20T07:50:53;13.27;;;11.98;;
39256;SDS011;24958;48.066;11.038;2022-08-20T07:53:19;13.90;;;12.60;;
39256;SDS011;24958;48.066;11.038;2022-08-20T07:55:45;12.35;;;11.15;;
39256;SDS011;24958;48.066;11.038;2022-08-20T07:58:12;12.00;;;10.80;;
39256;SDS011;24958;48.066;11.038;2022-08-20T08:00:39;12.73;;;11.63;;
39256;SDS011;24958;48.066;11.038;2022-08-20T08:03:05;11.05;;;10.05;;
39256;SDS011;24958;48.066;11.038;2022-08-20T08:05:32;13.40;;;12.10;;
39256;SDS011;24958;48.066;11.038;2022-08-20T08:07:59;12.32;;;11.13;;
39256;SDS011;24958;48.066;11.038;2022-08-20T08:10:25;12.75;;;11.45;;
39256;SDS011;24958;48.066;11.038;2022-08-20T08:12:53;11.98;;;10.80;;
39256;SDS011;24958;48.066;11.038;2022-08-20T08:15:21;12.63;;;11.43;;
39256;SDS011;24958;48.066;11.038;2022-08-20T08:17:49;12.57;;;11.38;;
39256;SDS011;24958;48.066;11.038;2022-08-20T08:20:16;11.82;;;10.82;;
39256;SDS011;24958;48.066;11.038;2022-08-20T08:22:46;12.70;;;11.50;;
39256;SDS011;24958;48.066;11.038;2022-08-20T08:25:13;11.63;;;10.55;;
39256;SDS011;24958;48.066;11.038;2022-08-20T08:27:40;13.00;;;11.45;;
39256;SDS011;24958;48.066;11.038;2022-08-20T08:30:08;12.35;;;11.25;;
39256;SDS011;24958;48.066;11.038;2022-08-20T08:32:35;12.35;;;11.23;;
39256;SDS011;24958;48.066;11.038;2022-08-20T08:35:04;11.13;;;10.13;;
39256;SDS011;24958;48.066;11.038;2022-08-20T08:37:32;12.70;;;11.60;;
39256;SDS011;24958;48.066;11.038;2022-08-20T08:39:58;12.30;;;11.15;;
39256;SDS011;24958;48.066;11.038;2022-08-20T08:42:27;12.05;;;10.93;;
39256;SDS011;24958;48.066;11.038;2022-08-20T08:44:54;12.00;;;11.10;;
39256;SDS011;24958;48.066;11.038;2022-08-20T08:47:24;13.27;;;11.98;;
39256;SDS011;24958;48.066;11.038;2022-08-20T08:49:51;12.80;;;11.70;;
39256;SDS011;24958;48.066;11.038;2022-08-20T08:52:19;13.25;;;11.88;;
39256;SDS011;24958;48.066;11.038;2022-08-20T08:54:48;13.13;;;11.82;;
39256;SDS011;24958;48.066;11.038;2022-08-20T08:57:17;13.45;;;12.23;;
39256;SDS011;24958;48.066;11.038;2022-08-20T08:59:44;12.38;;;11.27;;
39256;SDS011;24958;48.066;11.038;2022-08-20T09:02:16;12.88;;;11.70;;
39256;SDS011;24958;48.066;11.038;2022-08-20T09:04:43;12.13;;;11.13;;
39256;SDS011;24958;48.066;11.038;2022-08-20T09:07:09;14.43;;;12.93;;
39256;SDS011;24958;48.066;11.038;2022-08-20T09:09:39;13.60;;;12.43;;
39256;SDS011;24958;48.066;11.038;2022-08-20T09:12:10;12.85;;;11.65;;
39256;SDS011;24958;48.066;11.038;2022-08-20T09:14:37;12.07;;;10.98;;
39256;SDS011;24958;48.066;11.038;2022-08-20T09:17:03;13.77;;;12.38;;
39256;SDS011;24958;48.066;11.038;2022-08-20T09:19:30;12.07;;;10.88;;
39256;SDS011;24958;48.066;11.038;2022-08-20T09:21:56;12.55;;;11.40;;
39256;SDS011;24958;48.066;11.038;2022-08-20T09:24:22;11.88;;;10.77;;
39256;SDS011;24958;48.066;11.038;2022-08-20T09:26:48;11.50;;;10.50;;
39256;SDS011;24958;48.066;11.038;2022-08-20T09:29:14;12.77;;;11.50;;
39256;SDS011;24958;48.066;11.038;2022-08-20T09:31:40;12.38;;;11.18;;
39256;SDS011;24958;48.066;11.038;2022-08-20T09:34:06;12.25;;;11.15;;
39256;SDS011;24958;48.066;11.038;2022-08-20T09:36:32;10.57;;;9.68;;
39256;SDS011;24958;48.066;11.038;2022-08-20T09:38:59;10.90;;;9.90;;
39256;SDS011;24958;48.066;11.038;2022-08-20T09:41:25;11.27;;;10.20;;
39256;SDS011;24958;48.066;11.038;2022-08-20T09:43:51;10.88;;;9.98;;
39256;SDS011;24958;48.066;11.038;2022-08-20T09:46:18;11.38;;;10.38;;
39256;SDS011;24958;48.066;11.038;2022-08-20T09:48:44;10.95;;;10.00;;
39256;SDS011;24958;48.066;11.038;2022-08-20T09:51:10;11.13;;;10.13;;
39256;SDS011;24958;48.066;11.038;2022-08-20T09:53:36;10.98;;;10.05;;
39256;SDS011;24958;48.066;11.038;2022-08-20T09:56:02;11.23;;;10.27;;
39256;SDS011;24958;48.066;11.038;2022-08-20T10:00:58;10.55;;;9.60;;
39256;SDS011;24958;48.066;11.038;2022-08-20T10:03:24;11.40;;;10.40;;
39256;SDS011;24958;48.066;11.038;2022-08-20T10:05:50;10.73;;;9.82;;
39256;SDS011;24958;48.066;11.038;2022-08-20T10:08:16;11.20;;;9.88;;
39256;SDS011;24958;48.066;11.038;2022-08-20T10:10:42;10.63;;;9.57;;
39256;SDS011;24958;48.066;11.038;2022-08-20T10:13:08;11.70;;;10.50;;
39256;SDS011;24958;48.066;11.038;2022-08-20T10:15:37;12.95;;;11.75;;
39256;SDS011;24958;48.066;11.038;2022-08-20T10:18:04;12.82;;;11.55;;
39256;SDS011;24958;48.066;11.038;2022-08-20T10:20:32;14.30;;;12.82;;
39256;SDS011;24958;48.066;11.038;2022-08-20T10:22:58;16.45;;;14.85;;
39256;SDS011;24958;48.066;11.038;2022-08-20T10:25:24;14.25;;;13.02;;
39256;SDS011;24958;48.066;11.038;2022-08-20T10:27:52;15.30;;;13.85;;
39256;SDS011;24958;48.066;11.038;2022-08-20T10:30:18;18.23;;;15.18;;
39256;SDS011;24958;48.066;11.038;2022-08-20T10:32:44;16.48;;;14.88;;
39256;SDS011;24958;48.066;11.038;2022-08-20T10:35:10;16.67;;;15.07;;
39256;SDS011;24958;48.066;11.038;2022-08-20T10:37:36;15.88;;;14.30;;
39256;SDS011;24958;48.066;11.038;2022-08-20T10:40:03;16.60;;;15.02;;
39256;SDS011;24958;48.066;11.038;2022-08-20T10:42:29;17.27;;;15.68;;
39256;SDS011;24958;48.066;11.038;2022-08-20T10:44:55;15.82;;;14.40;;
39256;SDS011;24958;48.066;11.038;2022-08-20T10:47:22;18.13;;;16.33;;
39256;SDS011;24958;48.066;11.038;2022-08-20T10:49:49;15.52;;;14.15;;
39256;SDS011;24958;48.066;11.038;2022-08-20T10:52:15;18.02;;;16.33;;
39256;SDS011;24958;48.066;11.038;2022-08-20T10:54:42;19.25;;;17.35;;
39256;SDS011;24958;48.066;11.038;2022-08-20T10:57:11;17.85;;;16.05;;
39256;SDS011;24958;48.066;11.038;2022-08-20T10:59:39;16.98;;;15.27;;
39256;SDS011;24958;48.066;11.038;2022-08-20T11:02:05;17.70;;;15.90;;
39256;SDS011;24958;48.066;11.038;2022-08-20T11:04:31;15.80;;;14.30;;
39256;SDS011;24958;48.066;11.038;2022-08-20T11:06:57;16.83;;;15.23;;
39256;SDS011;24958;48.066;11.038;2022-08-20T11:09:23;16.15;;;14.65;;
39256;SDS011;24958;48.066;11.038;2022-08-20T11:11:49;14.95;;;13.60;;
39256;SDS011;24958;48.066;11.038;2022-08-20T11:14:15;15.20;;;13.80;;
39256;SDS011;24958;48.066;11.038;2022-08-20T11:16:41;15.57;;;14.07;;
39256;SDS011;24958;48.066;11.038;2022-08-20T11:19:07;16.85;;;15.13;;
39256;SDS011;24958;48.066;11.038;2022-08-20T11:21:33;14.95;;;13.57;;
39256;SDS011;24958;48.066;11.038;2022-08-20T11:23:58;12.52;;;11.30;;
39256;SDS011;24958;48.066;11.038;2022-08-20T11:26:24;12.70;;;11.50;;
39256;SDS011;24958;48.066;11.038;2022-08-20T11:28:50;9.85;;;8.82;;
39256;SDS011;24958;48.066;11.038;2022-08-20T11:31:16;9.88;;;9.07;;
39256;SDS011;24958;48.066;11.038;2022-08-20T11:33:42;9.13;;;8.32;;
39256;SDS011;24958;48.066;11.038;2022-08-20T11:36:08;6.30;;;5.80;;
39256;SDS011;24958;48.066;11.038;2022-08-20T11:38:34;7.22;;;6.53;;
39256;SDS011;24958;48.066;11.038;2022-08-20T11:41:00;13.57;;;7.63;;
39256;SDS011;24958;48.066;11.038;2022-08-20T11:43:26;11.98;;;7.50;;
39256;SDS011;24958;48.066;11.038;2022-08-20T11:45:53;9.38;;;8.32;;
39256;SDS011;24958;48.066;11.038;2022-08-20T11:48:20;11.15;;;9.07;;
39256;SDS011;24958;48.066;11.038;2022-08-20T11:50:46;9.82;;;8.88;;
39256;SDS011;24958;48.066;11.038;2022-08-20T11:53:12;8.25;;;7.53;;
39256;SDS011;24958;48.066;11.038;2022-08-20T11:55:38;8.30;;;7.60;;
39256;SDS011;24958;48.066;11.038;2022-08-20T11:58:05;8.95;;;8.05;;
39256;SDS011;24958;48.066;11.038;2022-08-20T12:00:31;9.90;;;9.10;;
39256;SDS011;24958;48.066;11.038;2022-08-20T12:02:57;9.82;;;8.93;;
39256;SDS011;24958;48.066;11.038;2022-08-20T12:05:23;9.25;;;8.35;;
39256;SDS011;24958;48.066;11.038;2022-08-20T12:07:51;9.40;;;8.48;;
39256;SDS011;24958;48.066;11.038;2022-08-20T12:10:17;7.50;;;6.90;;
39256;SDS011;24958;48.066;11.038;2022-08-20T12:12:43;8.07;;;7.35;;
39256;SDS011;24958;48.066;11.038;2022-08-20T12:15:09;7.57;;;6.97;;
39256;SDS011;24958;48.066;11.038;2022-08-20T12:17:36;8.50;;;7.70;;
39256;SDS011;24958;48.066;11.038;2022-08-20T12:20:04;8.93;;;8.13;;
39256;SDS011;24958;48.066;11.038;2022-08-20T12:22:30;7.43;;;6.78;;
39256;SDS011;24958;48.066;11.038;2022-08-20T12:24:56;6.18;;;5.65;;
39256;SDS011;24958;48.066;11.038;2022-08-20T12:27:26;7.47;;;6.88;;
39256;SDS011;24958;48.066;11.038;2022-08-20T12:29:53;6.57;;;6.03;;
39256;SDS011;24958;48.066;11.038;2022-08-20T12:32:20;3.72;;;3.33;;
39256;SDS011;24958;48.066;11.038;2022-08-20T12:34:46;4.07;;;3.67;;
39256;SDS011;24958;48.066;11.038;2022-08-20T12:37:20;2.63;;;2.42;;
39256;SDS011;24958;48.066;11.038;2022-08-20T12:39:47;3.05;;;2.85;;
39256;SDS011;24958;48.066;11.038;2022-08-20T12:42:14;2.85;;;2.65;;
39256;SDS011;24958;48.066;11.038;2022-08-20T12:44:40;3.05;;;2.85;;
39256;SDS011;24958;48.066;11.038;2022-08-20T12:49:39;4.15;;;2.65;;
39256;SDS011;24958;48.066;11.038;2022-08-20T12:52:06;3.13;;;2.92;;
39256;SDS011;24958;48.066;11.038;2022-08-20T12:54:32;6.03;;;3.40;;
39256;SDS011;24958;48.066;11.038;2022-08-20T12:56:58;5.53;;;3.08;;
39256;SDS011;24958;48.066;11.038;2022-08-20T12:59:24;5.55;;;3.42;;
39256;SDS011;24958;48.066;11.038;2022-08-20T13:01:52;2.80;;;2.60;;
39256;SDS011;24958;48.066;11.038;2022-08-20T13:04:18;2.65;;;2.40;;
39256;SDS011;24958;48.066;11.038;2022-08-20T13:06:44;2.10;;;1.83;;
39256;SDS011;24958;48.066;11.038;2022-08-20T13:09:10;1.98;;;1.77;;
39256;SDS011;24958;48.066;11.038;2022-08-20T13:11:36;2.15;;;1.95;;
39256;SDS011;24958;48.066;11.038;2022-08-20T13:14:02;2.58;;;2.38;;
39256;SDS011;24958;48.066;11.038;2022-08-20T13:16:28;3.33;;;2.20;;
39256;SDS011;24958;48.066;11.038;2022-08-20T13:18:54;4.03;;;3.33;;
39256;SDS011;24958;48.066;11.038;2022-08-20T13:21:20;3.70;;;3.40;;
39256;SDS011;24958;48.066;11.038;2022-08-20T13:23:46;5.15;;;4.65;;
39256;SDS011;24958;48.066;11.038;2022-08-20T13:26:12;4.10;;;3.67;;
39256;SDS011;24958;48.066;11.038;2022-08-20T13:28:38;6.00;;;5.43;;
39256;SDS011;24958;48.066;11.038;2022-08-20T13:31:04;4.47;;;4.18;;
39256;SDS011;24958;48.066;11.038;2022-08-20T13:33:30;4.85;;;4.45;;
39256;SDS011;24958;48.066;11.038;2022-08-20T13:35:56;3.45;;;3.17;;
39256;SDS011;24958;48.066;11.038;2022-08-20T13:38:22;4.70;;;4.30;;
39256;SDS011;24958;48.066;11.038;2022-08-20T13:40:48;3.70;;;3.47;;
39256;SDS011;24958;48.066;11.038;2022-08-20T13:43:14;3.78;;;3.47;;
39256;SDS011;24958;48.066;11.038;2022-08-20T13:45:41;3.83;;;3.53;;
39256;SDS011;24958;48.066;11.038;2022-08-20T13:48:07;4.57;;;4.10;;
39256;SDS011;24958;48.066;11.038;2022-08-20T13:50:34;4.25;;;3.67;;
39256;SDS011;24958;48.066;11.038;2022-08-20T13:53:00;4.15;;;3.58;;
39256;SDS011;24958;48.066;11.038;2022-08-20T13:55:27;4.78;;;3.00;;
39256;SDS011;24958;48.066;11.038;2022-08-20T13:57:53;2.60;;;2.40;;
39256;SDS011;24958;48.066;11.038;2022-08-20T14:00:24;4.00;;;2.65;;
39256;SDS011;24958;48.066;11.038;2022-08-20T14:02:50;2.63;;;2.42;;
39256;SDS011;24958;48.066;11.038;2022-08-20T14:05:16;3.20;;;2.88;;
39256;SDS011;24958;48.066;11.038;2022-08-20T14:07:42;2.35;;;2.15;;
39256;SDS011;24958;48.066;11.038;2022-08-20T14:10:10;2.90;;;2.70;;
39256;SDS011;24958;48.066;11.038;2022-08-20T14:12:36;2.65;;;2.45;;
39256;SDS011;24958;48.066;11.038;2022-08-20T14:15:02;2.53;;;2.30;;
39256;SDS011;24958;48.066;11.038;2022-08-20T14:17:30;2.97;;;2.30;;
39256;SDS011;24958;48.066;11.038;2022-08-20T14:19:57;2.83;;;2.30;;
39256;SDS011;24958;48.066;11.038;2022-08-20T14:22:23;2.92;;;2.63;;
39256;SDS011;24958;48.066;11.038;2022-08-20T14:24:50;2.92;;;2.72;;
39256;SDS011;24958;48.066;11.038;2022-08-20T14:27:17;3.20;;;3.00;;
39256;SDS011;24958;48.066;11.038;2022-08-20T14:29:47;3.92;;;3.53;;
39256;SDS011;24958;48.066;11.038;2022-08-20T14:32:13;4.68;;;4.25;;